Time;durP1;ratioP1;P1;durP2;ratioP2;P2;SDS_P1;SDS_P2;PMS_P1;PMS_P2;Temp;Humidity;BMP_temperature;BMP_pressure;BME280_temperature;BME280_humidity;BME280_pressure;Samples;Min_cycle;Max_cycle;Signal;HPM_P1;HPM_P2
2023/04/23 00:01:59;;;;;;;17.15;3.00;;;13.00;99.90;;;12.30;100.00;100207.22;4124193;28;20050;-84
2023/04/23 00:04:03;;;;;;;11.93;2.40;;;13.00;99.90;;;12.37;100.00;100217.88;4135049;28;20081;-84
2023/04/23 00:06:10;;;;;;;16.20;3.67;;;13.00;99.90;;;12.41;100.00;100217.38;4136962;28;20076;-83
2023/04/23 00:08:11;;;;;;;12.38;3.45;;;13.00;99.90;;;12.48;100.00;100210.34;4129458;28;20036;-84
2023/04/23 00:10:12;;;;;;;14.10;3.17;;;13.10;99.90;;;12.42;100.00;100191.75;4132973;28;20088;-84
2023/04/23 00:12:14;;;;;;;19.38;2.85;;;13.20;99.90;;;12.50;100.00;100183.72;4135319;28;20034;-83
2023/04/23 00:14:15;;;;;;;16.33;3.20;;;13.20;99.90;;;12.62;100.00;100195.47;4126264;28;20473;-84
2023/04/23 00:16:18;;;;;;;15.85;3.22;;;13.20;99.90;;;12.71;100.00;100197.88;4129321;28;20383;-85
2023/04/23 00:18:19;;;;;;;13.37;2.80;;;13.30;99.90;;;12.65;100.00;100187.19;4134110;28;20497;-85
2023/04/23 00:20:21;;;;;;;17.58;2.80;;;13.30;99.90;;;12.72;100.00;100199.47;4137950;28;20052;-84
2023/04/23 00:22:22;;;;;;;14.73;2.92;;;13.30;99.90;;;12.70;100.00;100192.72;4152759;28;20038;-84
2023/04/23 00:24:23;;;;;;;11.88;3.13;;;13.40;99.90;;;12.75;100.00;100193.03;4127496;28;20145;-85
2023/04/23 00:26:24;;;;;;;18.08;3.55;;;13.40;99.90;;;12.69;100.00;100177.88;4116683;28;20034;-83
2023/04/23 00:28:25;;;;;;;12.02;1.98;;;13.40;99.90;;;12.84;100.00;100186.63;4136301;28;20042;-84
2023/04/23 00:30:26;;;;;;;14.07;3.13;;;13.40;99.90;;;12.68;100.00;100165.66;4137705;28;20034;-83
2023/04/23 00:32:26;;;;;;;14.77;2.35;;;13.40;99.90;;;12.65;100.00;100166.00;4136519;28;20039;-83
2023/04/23 00:34:27;;;;;;;18.25;3.00;;;13.40;99.90;;;12.75;100.00;100171.84;4124559;28;20142;-84
2023/04/23 00:36:28;;;;;;;14.82;2.47;;;13.40;99.90;;;12.72;100.00;100166.94;4152169;28;20083;-84
2023/04/23 00:38:29;;;;;;;16.17;3.17;;;13.40;99.90;;;12.71;100.00;100162.63;4136503;28;20522;-83
2023/04/23 00:40:30;;;;;;;15.40;3.15;;;13.40;99.90;;;12.74;100.00;100173.69;4136406;28;20023;-83
2023/04/23 00:42:31;;;;;;;18.27;3.00;;;13.40;99.90;;;12.69;100.00;100169.94;4137273;28;20030;-82
2023/04/23 00:44:32;;;;;;;11.65;3.03;;;13.40;99.90;;;12.67;100.00;100164.81;4136000;28;20062;-84
2023/04/23 00:46:34;;;;;;;13.15;2.55;;;13.40;99.90;;;12.84;100.00;100176.06;4125669;28;20041;-83
2023/04/23 00:48:36;;;;;;;13.88;2.97;;;13.40;99.90;;;12.78;100.00;100166.19;4136149;28;20082;-83
2023/04/23 00:50:37;;;;;;;16.02;2.50;;;13.40;99.90;;;12.68;100.00;100150.59;4135043;28;20450;-83
2023/04/23 00:52:39;;;;;;;13.57;2.47;;;13.40;99.90;;;12.70;100.00;100153.03;4150272;28;20034;-84
2023/04/23 00:54:40;;;;;;;17.52;3.60;;;13.40;99.90;;;12.69;100.00;100162.00;4121501;28;20034;-83
2023/04/23 00:56:41;;;;;;;9.25;2.42;;;13.30;99.90;;;12.69;100.00;100151.41;4121181;28;20058;-84
2023/04/23 00:58:43;;;;;;;13.40;3.53;;;13.30;99.90;;;12.73;100.00;100153.50;4131717;28;20486;-83
2023/04/23 01:00:47;;;;;;;14.45;2.83;;;13.40;99.90;;;12.69;100.00;100138.19;4135139;28;20038;-84
2023/04/23 01:02:51;;;;;;;10.15;2.33;;;13.40;99.90;;;12.66;100.00;100135.91;4136211;28;20490;-83
2023/04/23 01:04:53;;;;;;;;;;;13.40;99.90;;;12.72;100.00;100146.56;4136224;28;20038;-83
2023/04/23 01:06:56;;;;;;;16.20;2.88;;;13.40;99.90;;;12.70;100.00;100127.41;4133826;28;19910;-83
2023/04/23 01:08:58;;;;;;;13.23;2.85;;;13.40;99.90;;;12.65;100.00;100123.69;4122532;28;20058;-83
2023/04/23 01:11:01;;;;;;;18.10;3.10;;;13.40;99.90;;;12.70;100.00;100135.34;4135970;28;20064;-82
2023/04/23 01:13:03;;;;;;;12.80;2.70;;;13.40;99.90;;;12.72;100.00;100111.34;4129783;28;20025;-83
2023/04/23 01:15:06;;;;;;;14.07;3.83;;;13.40;99.90;;;12.63;100.00;100120.41;4136121;28;20352;-84
2023/04/23 01:17:11;;;;;;;13.05;3.22;;;13.40;99.90;;;12.65;100.00;100127.16;4123722;28;20597;-83
2023/04/23 01:19:12;;;;;;;9.90;2.65;;;13.30;99.90;;;12.44;100.00;100105.06;4127251;28;20113;-83
2023/04/23 01:21:15;;;;;;;13.90;3.60;;;13.20;99.90;;;12.45;100.00;100117.31;4135509;28;20121;-83
2023/04/23 01:23:16;;;;;;;8.27;2.45;;;13.20;99.90;;;12.34;100.00;100109.81;4139866;28;20030;-83
2023/04/23 01:25:17;;;;;;;14.82;3.05;;;13.10;99.90;;;12.28;100.00;100107.91;4124453;28;20038;-84
2023/04/23 01:27:19;;;;;;;17.50;3.80;;;13.00;99.90;;;12.19;100.00;100102.69;4126860;28;20033;-84
2023/04/23 01:29:20;;;;;;;11.57;2.88;;;13.00;99.90;;;12.21;100.00;100105.97;4130176;28;20037;-84
2023/04/23 01:31:22;;;;;;;13.88;2.88;;;13.00;99.90;;;12.15;100.00;100100.63;4135443;28;20110;-83
2023/04/23 01:33:23;;;;;;;11.77;3.15;;;12.90;99.90;;;12.08;100.00;100100.53;4135515;28;20486;-84
2023/04/23 01:35:24;;;;;;;10.98;2.92;;;12.80;99.90;;;12.00;100.00;100097.16;4135438;28;20050;-85
2023/04/23 01:37:26;;;;;;;11.00;3.05;;;12.80;99.90;;;12.09;100.00;100112.75;4135737;28;20030;-84
2023/04/23 01:39:27;;;;;;;11.38;2.53;;;12.80;99.90;;;12.05;100.00;100103.53;4135245;28;20030;-85
2023/04/23 01:41:28;;;;;;;10.13;3.20;;;12.70;99.90;;;12.05;100.00;100118.56;4135479;28;20101;-84
2023/04/23 01:43:30;;;;;;;13.68;2.90;;;12.60;99.90;;;11.90;100.00;100113.25;4151231;28;20030;-84
2023/04/23 01:45:31;;;;;;;11.77;3.13;;;12.60;99.90;;;11.84;100.00;100118.44;4136390;28;20050;-84
2023/04/23 01:47:34;;;;;;;14.13;3.10;;;12.50;99.90;;;11.75;100.00;100111.56;4135386;28;20037;-84
2023/04/23 01:49:35;;;;;;;15.20;3.15;;;12.50;99.90;;;11.73;100.00;100109.13;4123029;28;20026;-84
2023/04/23 01:51:36;;;;;;;11.35;3.45;;;12.40;99.90;;;11.70;100.00;100112.13;4126334;28;20625;-84
2023/04/23 01:53:37;;;;;;;11.27;2.88;;;12.40;99.90;;;11.69;100.00;100110.44;4124410;28;20047;-83
2023/04/23 01:55:38;;;;;;;16.90;2.85;;;12.40;99.90;;;11.69;100.00;100107.81;4132442;28;20022;-84
2023/04/23 01:57:39;;;;;;;9.25;2.28;;;12.30;99.90;;;11.51;100.00;100083.50;4135115;28;20026;-84
2023/04/23 01:59:41;;;;;;;11.38;2.70;;;12.30;99.90;;;11.65;100.00;100111.78;4135503;28;20073;-84
2023/04/23 02:01:45;;;;;;;10.15;3.08;;;12.30;99.90;;;11.54;100.00;100099.84;4134770;28;20093;-85
2023/04/23 02:03:48;;;;;;;10.30;2.40;;;12.30;99.90;;;11.57;100.00;100104.75;4134981;28;20037;-84
2023/04/23 02:05:52;;;;;;;13.35;2.47;;;12.30;99.90;;;11.49;100.00;100101.38;4123380;28;20050;-85
2023/04/23 02:07:53;;;;;;;11.82;2.55;;;12.30;99.90;;;11.58;100.00;100108.22;4134936;28;20050;-84
2023/04/23 02:09:54;;;;;;;9.57;2.22;;;12.30;99.90;;;11.51;100.00;100097.56;4130976;28;20088;-84
2023/04/23 02:11:56;;;;;;;8.93;2.83;;;12.20;99.90;;;11.56;100.00;100089.06;4134960;28;20030;-84
2023/04/23 02:13:57;;;;;;;9.73;2.05;;;12.20;99.90;;;11.46;100.00;100083.25;4130514;28;20023;-83
2023/04/23 02:15:58;;;;;;;9.73;1.65;;;12.20;99.90;;;11.41;100.00;100078.47;4135188;28;20067;-84
2023/04/23 02:17:59;;;;;;;5.47;1.77;;;12.10;99.90;;;11.40;100.00;100084.78;4134901;28;20032;-84
2023/04/23 02:20:01;;;;;;;12.95;2.45;;;12.10;99.90;;;11.42;100.00;100092.50;4132583;28;20050;-84
2023/04/23 02:22:02;;;;;;;9.50;2.83;;;12.10;99.90;;;11.43;100.00;100084.41;4135176;28;20045;-84
2023/04/23 02:24:04;;;;;;;8.82;2.15;;;12.10;99.90;;;11.41;100.00;100077.69;4135100;28;20490;-84
2023/04/23 02:26:05;;;;;;;11.60;2.25;;;12.00;99.90;;;11.34;100.00;100074.09;4118815;28;20031;-84
2023/04/23 02:28:07;;;;;;;9.95;2.67;;;12.00;99.90;;;11.35;100.00;100065.97;4134838;28;20081;-84
2023/04/23 02:30:10;;;;;;;7.90;2.72;;;12.00;99.90;;;11.28;100.00;100069.50;4134882;28;20066;-85
2023/04/23 02:32:11;;;;;;;15.23;2.67;;;12.00;99.90;;;11.28;100.00;100064.25;4127583;28;20034;-84
2023/04/23 02:34:12;;;;;;;10.98;3.25;;;12.00;99.90;;;11.27;100.00;100067.88;4124936;28;20030;-84
2023/04/23 02:36:12;;;;;;;10.18;2.45;;;11.90;99.90;;;11.27;100.00;100059.94;4133179;28;20030;-85
2023/04/23 02:38:13;;;;;;;13.65;2.55;;;11.90;99.90;;;11.24;100.00;100041.81;4136106;28;20459;-85
2023/04/23 02:40:14;;;;;;;12.50;2.00;;;11.90;99.90;;;11.20;100.00;100040.56;4151211;28;20029;-84
2023/04/23 02:42:15;;;;;;;10.98;2.70;;;11.90;99.90;;;11.25;100.00;100044.28;4134498;28;20030;-83
2023/04/23 02:44:16;;;;;;;11.82;3.00;;;11.90;99.90;;;11.30;100.00;100046.38;4132888;28;20019;-83
2023/04/23 02:46:17;;;;;;;6.18;2.20;;;12.00;99.90;;;11.25;100.00;100043.47;4151096;28;20076;-83
2023/04/23 02:48:18;;;;;;;13.18;2.80;;;12.00;99.90;;;11.23;100.00;100019.88;4136027;28;20041;-85
2023/04/23 02:50:19;;;;;;;10.15;1.95;;;12.00;99.90;;;11.32;100.00;100033.84;4150830;28;20148;-84
2023/04/23 02:52:20;;;;;;;16.92;2.80;;;12.00;99.90;;;11.33;100.00;100038.94;4134762;28;20030;-83
2023/04/23 02:54:21;;;;;;;18.65;2.72;;;12.00;99.90;;;11.34;100.00;100037.94;4119356;28;20055;-84
2023/04/23 02:56:22;;;;;;;8.80;2.45;;;12.00;99.90;;;11.42;100.00;100050.25;4125487;28;20031;-83
2023/04/23 02:58:23;;;;;;;9.32;2.10;;;12.00;99.90;;;11.35;100.00;100025.56;4134317;28;20582;-84
2023/04/23 03:00:25;;;;;;;17.30;2.58;;;12.00;99.90;;;11.32;100.00;100008.25;4134913;28;20475;-84
2023/04/23 03:02:26;;;;;;;13.48;2.13;;;12.00;99.90;;;11.32;100.00;100010.09;4132576;28;20037;-85
2023/04/23 03:04:27;;;;;;;10.77;2.38;;;12.00;99.90;;;11.24;100.00;100013.59;4124288;28;20506;-85
2023/04/23 03:06:30;;;;;;;12.48;3.10;;;12.00;99.90;;;11.22;100.00;100015.59;4127237;28;20030;-83
2023/04/23 03:08:31;;;;;;;10.13;1.80;;;12.00;99.90;;;11.22;100.00;100018.25;4134652;28;20109;-84
2023/04/23 03:10:32;;;;;;;13.20;2.30;;;12.00;99.90;;;11.20;100.00;100006.22;4133900;28;20030;-84
2023/04/23 03:12:33;;;;;;;8.77;2.00;;;11.90;99.90;;;11.20;100.00;100006.22;4135766;28;20022;-84
2023/04/23 03:14:34;;;;;;;12.82;2.85;;;11.90;99.90;;;11.21;100.00;99995.47;4128382;28;20117;-83
2023/04/23 03:16:35;;;;;;;14.85;2.05;;;11.90;99.90;;;11.15;100.00;99993.56;4133572;28;20022;-83
2023/04/23 03:18:36;;;;;;;11.60;2.00;;;11.90;99.90;;;11.09;100.00;99989.81;4137641;28;20038;-82
2023/04/23 03:20:37;;;;;;;10.30;1.70;;;11.80;99.90;;;11.07;100.00;99990.97;4137563;28;20034;-83
2023/04/23 03:22:38;;;;;;;11.60;2.47;;;11.80;99.90;;;11.15;100.00;99987.44;4137521;28;20046;-84
2023/04/23 03:24:39;;;;;;;8.20;2.20;;;11.80;99.90;;;11.06;100.00;99982.25;4126188;28;20031;-84
2023/04/23 03:26:40;;;;;;;13.43;2.67;;;11.80;99.90;;;11.07;100.00;99980.44;4136351;28;20030;-84
2023/04/23 03:28:41;;;;;;;8.10;1.65;;;11.80;99.90;;;11.14;100.00;99973.41;4137323;28;20026;-84
2023/04/23 03:30:42;;;;;;;5.00;2.08;;;11.80;99.90;;;11.10;100.00;99969.50;4137621;28;20035;-84
2023/04/23 03:32:42;;;;;;;11.43;2.15;;;11.80;99.90;;;11.05;100.00;99970.03;4137475;28;20502;-84
2023/04/23 03:34:43;;;;;;;8.20;2.08;;;11.80;99.90;;;11.02;100.00;99959.81;4125880;28;20034;-83
2023/04/23 03:36:47;;;;;;;9.27;2.13;;;11.80;99.90;;;11.02;100.00;99957.19;4137404;28;20406;-84
2023/04/23 03:38:48;;;;;;;8.60;1.60;;;11.70;99.90;;;10.95;100.00;99947.53;4153701;28;20124;-83
2023/04/23 03:40:49;;;;;;;6.50;2.00;;;11.70;99.90;;;10.95;100.00;99943.09;4137444;28;20034;-83
2023/04/23 03:42:50;;;;;;;10.05;2.38;;;11.60;99.90;;;10.96;100.00;99933.34;4136788;28;20034;-84
2023/04/23 03:44:51;;;;;;;7.65;1.65;;;11.70;99.90;;;10.94;100.00;99930.88;4137046;28;20558;-84
2023/04/23 03:46:51;;;;;;;12.00;2.42;;;11.60;99.90;;;10.93;100.00;99939.78;4129178;28;20035;-84
2023/04/23 03:48:52;;;;;;;8.95;2.03;;;11.60;99.90;;;10.90;100.00;99919.03;4120993;28;20438;-84
2023/04/23 03:50:53;;;;;;;10.50;2.20;;;11.60;99.90;;;10.90;100.00;99903.19;4137029;28;20033;-84
2023/04/23 03:52:55;;;;;;;9.18;2.30;;;11.60;99.90;;;10.94;100.00;99901.84;4137269;28;20046;-83
2023/04/23 03:54:56;;;;;;;6.82;1.80;;;11.60;99.90;;;10.88;100.00;99888.56;4128842;28;20395;-84
2023/04/23 03:56:58;;;;;;;12.25;2.40;;;11.60;99.90;;;10.92;100.00;99895.13;4138382;28;20026;-85
2023/04/23 03:58:59;;;;;;;9.30;2.30;;;11.60;99.90;;;10.92;100.00;99890.66;4136687;28;20592;-81
2023/04/23 04:00:59;;;;;;;12.27;2.67;;;11.60;99.90;;;10.89;100.00;99869.91;4136819;28;20026;-83
2023/04/23 04:03:01;;;;;;;8.68;2.65;;;11.60;99.90;;;10.87;100.00;99871.91;4136766;28;20033;-83
2023/04/23 04:05:01;;;;;;;12.05;2.88;;;11.60;99.90;;;10.82;100.00;99858.44;4137007;28;20031;-83
2023/04/23 04:07:02;;;;;;;8.00;2.53;;;11.60;99.90;;;10.92;100.00;99858.19;4120566;28;20042;-84
2023/04/23 04:09:03;;;;;;;8.02;2.53;;;11.60;99.90;;;10.90;100.00;99855.72;4138166;28;20022;-83
2023/04/23 04:11:04;;;;;;;16.13;3.67;;;11.60;99.90;;;10.89;100.00;99843.53;4151119;28;20025;-83
2023/04/23 04:13:05;;;;;;;7.45;2.83;;;11.60;99.90;;;10.91;100.00;99841.53;4136616;28;20053;-84
2023/04/23 04:15:07;;;;;;;17.38;3.35;;;11.60;99.90;;;10.85;100.00;99825.59;4141720;28;20031;-83
2023/04/23 04:17:08;;;;;;;6.13;1.73;;;11.60;99.90;;;10.90;100.00;99823.25;4133131;28;20014;-84
2023/04/23 04:19:09;;;;;;;10.00;2.00;;;11.60;99.90;;;10.86;100.00;99811.41;4127666;28;20026;-83
2023/04/23 04:21:10;;;;;;;9.48;2.10;;;11.60;99.90;;;10.84;100.00;99793.09;4121792;28;20026;-84
2023/04/23 04:23:11;;;;;;;9.73;2.05;;;11.60;99.90;;;10.86;100.00;99796.41;4137365;28;20030;-83
2023/04/23 04:25:13;;;;;;;9.50;2.80;;;11.60;99.90;;;10.78;100.00;99777.22;4137692;28;20053;-84
2023/04/23 04:27:14;;;;;;;8.93;2.50;;;11.60;99.90;;;10.85;100.00;99778.94;4131539;28;20113;-83
2023/04/23 04:29:15;;;;;;;11.02;2.78;;;11.60;99.90;;;10.86;100.00;99780.56;4113611;28;20027;-83
2023/04/23 04:31:16;;;;;;;10.85;2.30;;;11.60;99.90;;;10.91;100.00;99780.84;4136455;28;20042;-83
2023/04/23 04:33:17;;;;;;;16.83;3.05;;;11.60;99.90;;;10.82;100.00;99771.38;4137619;28;20426;-83
2023/04/23 04:35:18;;;;;;;13.55;1.88;;;11.60;99.90;;;10.85;100.00;99771.00;4136516;28;20026;-82
2023/04/23 04:37:20;;;;;;;10.57;2.08;;;11.60;99.90;;;10.82;100.00;99758.19;4137682;28;20471;-83
2023/04/23 04:39:21;;;;;;;10.50;2.75;;;11.60;99.90;;;10.84;100.00;99745.63;4136498;28;20014;-83
2023/04/23 04:41:24;;;;;;;9.80;2.65;;;11.60;99.90;;;10.83;100.00;99736.09;4136093;28;20069;-83
2023/04/23 04:43:25;;;;;;;7.67;1.73;;;11.50;99.90;;;10.83;100.00;99736.09;4129732;28;20026;-83
2023/04/23 04:45:26;;;;;;;16.77;2.67;;;11.60;99.90;;;10.81;100.00;99716.97;4123467;28;20418;-84
2023/04/23 04:47:27;;;;;;;9.73;2.25;;;11.60;99.90;;;10.83;100.00;99720.25;4132894;28;20035;-83
2023/04/23 04:49:28;;;;;;;9.77;2.35;;;11.60;99.90;;;10.86;100.00;99711.97;4137358;28;20500;-82
2023/04/23 04:51:28;;;;;;;8.75;2.20;;;11.50;99.90;;;10.78;100.00;99680.41;4136142;28;20034;-83
2023/04/23 04:53:29;;;;;;;13.18;2.25;;;11.50;99.90;;;10.77;100.00;99681.41;4128874;28;20391;-83
2023/04/23 04:55:30;;;;;;;8.57;2.00;;;11.50;99.90;;;10.79;100.00;99663.56;4131888;28;20034;-83
2023/04/23 04:57:31;;;;;;;7.20;1.92;;;11.50;99.90;;;10.75;100.00;99637.78;4136948;28;20030;-84
2023/04/23 04:59:32;;;;;;;7.35;2.25;;;11.50;99.90;;;10.79;100.00;99637.19;4136131;28;20034;-83
2023/04/23 05:01:33;;;;;;;5.85;1.70;;;11.50;99.90;;;10.78;100.00;99619.72;4129823;28;20145;-83
2023/04/23 05:03:34;;;;;;;8.13;2.00;;;11.50;99.90;;;10.75;100.00;99599.00;4135939;28;20037;-83
2023/04/23 05:05:35;;;;;;;10.43;2.30;;;11.50;99.90;;;10.74;100.00;99613.19;4137050;28;20530;-83
2023/04/23 05:07:36;;;;;;;8.60;2.30;;;11.50;99.90;;;10.71;100.00;99570.56;4135940;28;20105;-83
2023/04/23 05:09:37;;;;;;;5.60;2.53;;;11.50;99.90;;;10.72;100.00;99567.72;4137164;28;20030;-82
2023/04/23 05:11:39;;;;;;;8.85;1.95;;;11.40;99.90;;;10.65;100.00;99547.56;4137011;28;20114;-83
2023/04/23 05:13:40;;;;;;;6.63;2.17;;;11.50;99.90;;;10.63;100.00;99531.09;4135456;28;20022;-83
2023/04/23 05:15:41;;;;;;;6.72;2.30;;;11.50;99.90;;;10.70;100.00;99542.53;4124805;28;20031;-83
2023/04/23 05:17:43;;;;;;;6.25;2.00;;;11.40;99.90;;;10.72;100.00;99528.16;4135812;28;20037;-83
2023/04/23 05:19:43;;;;;;;9.95;2.55;;;11.40;99.90;;;10.70;100.00;99514.34;4137101;28;20109;-83
2023/04/23 05:21:44;;;;;;;7.00;2.30;;;11.40;99.90;;;10.67;100.00;99498.88;4135606;28;20057;-83
2023/04/23 05:23:45;;;;;;;8.25;1.90;;;11.40;99.90;;;10.54;100.00;99470.56;4124112;28;20038;-82
2023/04/23 05:25:46;;;;;;;7.40;2.40;;;11.40;99.90;;;10.71;100.00;99502.81;4128349;28;20023;-83
2023/04/23 05:27:47;;;;;;;3.92;1.67;;;11.40;99.90;;;10.68;100.00;99479.44;4136649;28;20030;-83
2023/04/23 05:29:48;;;;;;;7.00;2.03;;;11.40;99.90;;;10.71;100.00;99492.25;4135569;28;20070;-83
2023/04/23 05:31:49;;;;;;;11.88;2.85;;;11.40;99.90;;;10.67;100.00;99471.69;4124915;28;20125;-83
2023/04/23 05:33:50;;;;;;;4.63;1.80;;;11.40;99.90;;;10.74;100.00;99465.50;4136872;28;20026;-82
2023/04/23 05:35:51;;;;;;;9.77;2.38;;;11.40;99.90;;;10.82;100.00;99461.91;4136164;28;20058;-83
2023/04/23 05:37:52;;;;;;;5.93;2.17;;;11.50;99.90;;;10.84;100.00;99454.63;4135331;28;20572;-82
2023/04/23 05:39:53;;;;;;;10.23;2.22;;;11.50;99.90;;;10.92;100.00;99452.69;4131330;28;20038;-82
2023/04/23 05:41:53;;;;;;;7.32;2.55;;;11.50;99.90;;;10.88;100.00;99437.41;4123075;28;20018;-83
2023/04/23 05:43:54;;;;;;;12.07;3.08;;;11.50;99.90;;;10.86;100.00;99427.06;4135509;28;20038;-83
2023/04/23 05:45:55;;;;;;;10.40;2.63;;;11.50;99.90;;;10.88;100.00;99442.69;4136264;28;20050;-82
2023/04/23 05:47:56;;;;;;;9.77;2.00;;;11.60;99.90;;;10.90;100.00;99433.56;4135414;28;20041;-82
2023/04/23 05:49:57;;;;;;;9.88;2.13;;;11.60;99.90;;;10.96;100.00;99438.09;4126086;28;20022;-83
2023/04/23 05:51:58;;;;;;;8.48;2.50;;;11.70;99.90;;;10.90;100.00;99401.13;4129045;28;20030;-83
2023/04/23 05:53:59;;;;;;;14.07;2.75;;;11.60;99.90;;;11.09;100.00;99426.84;4135204;28;20022;-83
2023/04/23 05:56:00;;;;;;;12.93;2.60;;;11.70;99.90;;;11.15;100.00;99425.25;4136673;28;20033;-83
2023/04/23 05:58:01;;;;;;;22.75;3.97;;;11.80;99.90;;;11.27;100.00;99432.47;4128484;28;20395;-83
2023/04/23 06:00:10;;;;;;;22.30;3.42;;;11.90;99.90;;;11.36;100.00;99438.41;4113039;28;20051;-83
2023/04/23 06:02:11;;;;;;;21.33;4.15;;;12.00;99.90;;;11.41;100.00;99430.75;4134362;28;20062;-82
2023/04/23 06:04:13;;;;;;;27.15;4.18;;;12.00;99.90;;;11.46;100.00;99430.97;4136388;28;20414;-83
2023/04/23 06:06:14;;;;;;;29.73;4.88;;;12.10;99.90;;;11.48;100.00;99431.56;4134972;28;20065;-82
2023/04/23 06:08:14;;;;;;;32.70;5.40;;;12.10;99.90;;;11.49;100.00;99420.03;4118919;28;20487;-82
2023/04/23 06:10:15;;;;;;;40.15;5.47;;;12.20;99.90;;;11.56;100.00;99434.06;4132793;28;20022;-82
2023/04/23 06:12:17;;;;;;;32.90;5.75;;;12.20;99.90;;;11.58;100.00;99443.44;4134664;28;20054;-82
2023/04/23 06:14:18;;;;;;;30.08;6.45;;;12.30;99.90;;;11.62;100.00;99444.66;4126338;28;20070;-82
2023/04/23 06:16:19;;;;;;;43.72;5.28;;;12.30;99.90;;;11.73;100.00;99455.75;4136217;28;20049;-82
2023/04/23 06:18:20;;;;;;;33.20;6.00;;;12.40;99.90;;;11.75;100.00;99472.19;4136190;28;20023;-82
2023/04/23 06:20:21;;;;;;;30.17;5.32;;;12.40;99.90;;;11.77;100.00;99489.50;4135161;28;20026;-82
2023/04/23 06:22:22;;;;;;;39.72;6.05;;;12.40;99.90;;;11.80;100.00;99491.75;4125745;28;20485;-83
2023/04/23 06:24:23;;;;;;;31.23;5.95;;;12.50;99.90;;;11.77;100.00;99488.69;4134679;28;20030;-83
2023/04/23 06:26:24;;;;;;;36.53;7.00;;;12.50;99.90;;;12.02;100.00;99558.56;4134844;28;20145;-82
2023/04/23 06:28:25;;;;;;;13.95;2.63;;;12.60;99.90;;;11.72;100.00;99570.34;4134549;28;20536;-83
2023/04/23 06:30:26;;;;;;;1.70;0.50;;;12.50;99.90;;;11.02;100.00;99579.81;4134992;28;20498;-83
2023/04/23 06:32:27;;;;;;;1.60;0.45;;;12.20;99.90;;;10.70;100.00;99553.91;4135999;28;20089;-83
2023/04/23 06:34:28;;;;;;;1.15;0.30;;;11.90;99.90;;;10.63;100.00;99563.56;4135043;28;20569;-84
2023/04/23 06:36:29;;;;;;;1.02;0.30;;;11.70;99.90;;;10.18;100.00;99563.81;4118468;28;20059;-81
2023/04/23 06:38:30;;;;;;;1.17;0.20;;;11.40;99.90;;;9.82;100.00;99575.00;4140827;28;20018;-82
2023/04/23 06:40:32;;;;;;;0.38;0.10;;;11.00;99.90;;;9.60;100.00;99591.66;4134020;28;20034;-83
2023/04/23 06:42:33;;;;;;;1.67;0.20;;;10.70;99.90;;;9.61;100.00;99598.56;4135647;28;20031;-82
2023/04/23 06:44:34;;;;;;;0.28;0.10;;;10.50;99.90;;;9.48;100.00;99585.19;4120377;28;20439;-81
2023/04/23 06:46:35;;;;;;;0.00;0.00;;;10.40;99.90;;;9.55;100.00;99588.75;4124442;28;20035;-80
2023/04/23 06:48:36;;;;;;;1.52;0.13;;;10.40;99.90;;;9.58;100.00;99609.47;4130433;28;20053;-80
2023/04/23 06:50:39;;;;;;;1.33;0.10;;;10.30;99.90;;;9.73;100.00;99607.69;4150196;28;20494;-81
2023/04/23 06:52:39;;;;;;;0.10;0.00;;;10.40;99.90;;;9.75;100.00;99626.75;4137830;28;20093;-81
2023/04/23 06:54:40;;;;;;;0.90;0.10;;;10.50;99.90;;;9.63;100.00;99615.00;4139277;28;20486;-81
2023/04/23 06:56:41;;;;;;;0.50;0.10;;;10.50;99.90;;;9.72;100.00;99632.38;4138015;28;20403;-81
2023/04/23 06:58:42;;;;;;;0.22;0.20;;;10.50;99.90;;;9.96;100.00;99634.78;4133456;28;20033;-80
2023/04/23 07:00:43;;;;;;;0.25;0.10;;;10.60;99.90;;;10.12;100.00;99633.00;4124341;28;20510;-80
2023/04/23 07:02:45;;;;;;;0.73;0.30;;;10.70;99.90;;;10.20;100.00;99632.94;4126571;28;20033;-80
2023/04/23 07:04:46;;;;;;;0.35;0.35;;;10.80;99.90;;;10.13;100.00;99645.16;4129669;28;20034;-81
2023/04/23 07:06:47;;;;;;;0.15;0.03;;;10.90;99.90;;;9.98;100.00;99667.03;4134208;28;20085;-80
2023/04/23 07:08:48;;;;;;;0.10;0.10;;;10.90;99.90;;;9.85;100.00;99668.66;4137593;28;20037;-82
2023/04/23 07:10:49;;;;;;;0.10;0.10;;;10.70;99.90;;;9.67;100.00;99676.84;4133287;28;20038;-80
2023/04/23 07:12:49;;;;;;;0.90;0.10;;;10.60;99.90;;;9.55;100.00;99699.31;4137434;28;20449;-80
2023/04/23 07:14:52;;;;;;;0.32;0.10;;;10.50;99.90;;;9.58;100.00;99733.19;4121693;28;20023;-80
2023/04/23 07:16:53;;;;;;;0.50;0.20;;;10.50;99.90;;;9.49;100.00;99739.50;4135860;28;20030;-79
2023/04/23 07:18:54;;;;;;;0.10;0.10;;;10.40;99.90;;;9.59;100.00;99762.97;4137572;28;20102;-80
2023/04/23 07:20:55;;;;;;;0.32;0.10;;;10.40;99.90;;;9.62;100.00;99773.97;4121732;28;20530;-81
2023/04/23 07:22:57;;;;;;;0.50;0.10;;;10.40;99.90;;;9.64;100.00;99779.06;4133396;28;20018;-80
2023/04/23 07:25:00;;;;;;;2.45;0.30;;;10.40;99.90;;;9.74;100.00;99798.91;4138630;28;20033;-81
2023/04/23 07:27:01;;;;;;;0.63;0.20;;;10.50;99.90;;;9.66;100.00;99796.34;4138574;28;20027;-80
2023/04/23 07:29:05;;;;;;;0.52;0.20;;;10.50;99.90;;;9.77;100.00;99817.00;4121313;28;20027;-81
2023/04/23 07:31:06;;;;;;;0.45;0.30;;;10.50;99.90;;;9.82;100.00;99819.97;4126437;28;20025;-81
2023/04/23 07:33:07;;;;;;;1.63;0.30;;;10.60;99.90;;;9.90;100.00;99827.81;4122464;28;20031;-81
2023/04/23 07:35:10;;;;;;;0.43;0.35;;;10.70;99.90;;;10.07;100.00;99838.22;4125939;28;20105;-79
2023/04/23 07:37:11;;;;;;;2.85;0.40;;;10.70;99.90;;;10.08;100.00;99827.53;4145131;28;20030;-81
2023/04/23 07:39:12;;;;;;;0.60;0.45;;;10.80;99.90;;;10.21;100.00;99848.06;4137064;28;20026;-80
2023/04/23 07:41:13;;;;;;;1.10;0.30;;;10.90;99.90;;;10.35;100.00;99856.03;4136032;28;20030;-81
2023/04/23 07:43:15;;;;;;;1.38;0.17;;;11.00;99.90;;;10.33;100.00;99862.47;4139641;28;20030;-81
2023/04/23 07:45:18;;;;;;;0.70;0.30;;;11.10;99.90;;;10.33;100.00;99847.47;4133308;28;20053;-81
2023/04/23 07:47:18;;;;;;;1.48;0.60;;;11.10;99.90;;;10.43;100.00;99870.94;4137240;28;20031;-81
2023/04/23 07:49:19;;;;;;;1.10;0.30;;;11.20;99.90;;;10.45;100.00;99876.88;4120015;28;20100;-81
2023/04/23 07:51:21;;;;;;;1.52;0.20;;;11.20;99.90;;;10.65;100.00;99875.41;4137157;28;20023;-81
2023/04/23 07:53:22;;;;;;;0.80;0.20;;;11.30;99.90;;;10.70;100.00;99857.22;4145614;28;20022;-80
2023/04/23 07:55:23;;;;;;;0.47;0.17;;;11.50;99.90;;;11.03;100.00;99876.22;4137227;28;20367;-80
2023/04/23 07:57:24;;;;;;;0.60;0.20;;;11.60;99.90;;;10.92;100.00;99881.94;4136903;28;20050;-81
2023/04/23 07:59:25;;;;;;;1.05;0.20;;;11.80;99.90;;;11.42;100.00;99887.34;4134220;28;20122;-78
2023/04/23 08:01:26;;;;;;;0.65;0.10;;;12.00;99.90;;;11.69;100.00;99888.53;4137888;28;20034;-78
2023/04/23 08:03:27;;;;;;;0.85;0.52;;;12.20;99.90;;;11.57;100.00;99895.25;4137133;28;20058;-81
2023/04/23 08:05:28;;;;;;;0.65;0.20;;;12.20;99.90;;;11.41;100.00;99884.91;4118874;28;20034;-80
2023/04/23 08:07:29;;;;;;;0.57;0.25;;;12.20;99.90;;;11.41;100.00;99888.34;4120327;28;20031;-80
2023/04/23 08:09:30;;;;;;;0.75;0.20;;;12.10;99.90;;;11.35;100.00;99896.19;4138024;28;20030;-80
2023/04/23 08:11:32;;;;;;;1.10;0.40;;;12.10;99.90;;;11.29;100.00;99889.78;4126613;28;20491;-80
2023/04/23 08:13:33;;;;;;;0.82;0.28;;;12.10;99.90;;;11.45;100.00;99902.00;4120214;28;20034;-79
2023/04/23 08:15:34;;;;;;;2.08;0.38;;;12.10;99.90;;;11.61;100.00;99894.72;4125301;28;20399;-80
2023/04/23 08:17:35;;;;;;;1.00;0.35;;;12.30;99.90;;;11.78;100.00;99903.31;4128284;28;20022;-80
2023/04/23 08:19:36;;;;;;;2.30;0.70;;;12.50;99.90;;;12.16;100.00;99915.34;4131588;28;20114;-80
2023/04/23 08:21:37;;;;;;;3.55;0.60;;;12.70;99.90;;;12.50;100.00;99898.84;4136586;28;20065;-80